Time;durP1;ratioP1;P1;durP2;ratioP2;P2;SDS_P1;SDS_P2;PMS_P1;PMS_P2;Temp;Humidity;BMP_temperature;BMP_pressure;BME280_temperature;BME280_humidity;BME280_pressure;Samples;Min_cycle;Max_cycle;Signal;HPM_P1;HPM_P2
2022/05/28 00:01:13;;;;;;;;;;;13.20;65.80;;;;;;5114085;28;20091;-75
2022/05/28 00:03:39;;;;;;;;;;;13.20;65.60;;;;;;5113818;28;19915;-73
2022/05/28 00:06:14;;;;;;;8.30;2.17;;;13.20;65.30;;;;;;5078188;28;19912;-74
2022/05/28 00:08:41;;;;;;;12.70;2.28;;;13.20;65.30;;;;;;5095261;28;20123;-75
2022/05/28 00:11:32;;;;;;;12.05;2.78;;;13.10;65.50;;;;;;5113020;28;20051;-74
2022/05/28 00:13:58;;;;;;;9.13;2.67;;;13.10;66.00;;;;;;5113083;28;20054;-73
2022/05/28 00:16:24;;;;;;;;;;;13.00;65.80;;;;;;5113312;28;20027;-73
2022/05/28 00:18:51;;;;;;;11.45;2.50;;;13.00;65.70;;;;;;5094778;28;20238;-74
2022/05/28 00:21:19;;;;;;;10.10;3.40;;;13.10;65.60;;;;;;5094574;28;20035;-73
2022/05/28 00:23:45;;;;;;;20.23;4.32;;;13.00;65.70;;;;;;5094881;28;20022;-74
2022/05/28 00:26:11;;;;;;;13.45;3.47;;;13.00;65.80;;;;;;5078039;28;20114;-75
2022/05/28 00:28:37;;;;;;;12.90;2.50;;;13.00;65.90;;;;;;5113060;28;20034;-74
2022/05/28 00:31:03;;;;;;;15.40;2.88;;;13.00;66.00;;;;;;5113063;28;20462;-75
2022/05/28 00:33:30;;;;;;;10.20;2.97;;;13.00;66.00;;;;;;5094637;28;20055;-74
2022/05/28 00:35:56;;;;;;;15.32;5.15;;;12.90;66.10;;;;;;5077973;28;20460;-73
2022/05/28 00:38:24;;;;;;;16.17;4.35;;;12.90;66.30;;;;;;5112858;28;20102;-74
2022/05/28 00:40:54;;;;;;;15.93;5.65;;;12.80;66.40;;;;;;5077796;28;20470;-74
2022/05/28 00:43:20;;;;;;;21.65;6.05;;;12.80;66.50;;;;;;5112911;28;20389;-75
2022/05/28 00:45:47;;;;;;;;;;;12.80;66.50;;;;;;5113215;28;20027;-74
2022/05/28 00:48:20;;;;;;;16.20;4.53;;;12.80;66.40;;;;;;5094394;28;19907;-73
2022/05/28 00:50:46;;;;;;;12.50;3.72;;;12.80;66.10;;;;;;5094454;28;20138;-74
2022/05/28 00:53:12;;;;;;;13.75;4.22;;;12.80;66.20;;;;;;5112554;28;20213;-74
2022/05/28 00:55:38;;;;;;;12.70;3.63;;;12.80;66.20;;;;;;5112460;28;20466;-74
2022/05/28 00:58:06;;;;;;;16.45;3.60;;;12.70;66.30;;;;;;5112582;28;20049;-73
2022/05/28 01:00:33;;;;;;;12.43;3.50;;;12.70;66.50;;;;;;5112432;28;20024;-74
2022/05/28 01:03:02;;;;;;;9.45;3.10;;;12.70;66.70;;;;;;5112258;28;20082;-75
2022/05/28 01:05:53;;;;;;;11.38;3.10;;;12.70;66.70;;;;;;5112310;28;20493;-74
2022/05/28 01:08:37;;;;;;;10.13;2.65;;;12.70;66.60;;;;;;5111459;28;20484;-73
2022/05/28 01:11:22;;;;;;;8.38;2.55;;;12.70;66.50;;;;;;5112328;28;20381;-73
2022/05/28 01:14:12;;;;;;;13.25;3.72;;;12.70;66.70;;;;;;5093856;28;20486;-73
2022/05/28 01:16:45;;;;;;;6.72;2.50;;;12.60;66.70;;;;;;5112214;28;20080;-75
2022/05/28 01:19:17;;;;;;;8.90;2.63;;;12.60;66.80;;;;;;5112052;28;20047;-73
2022/05/28 01:21:51;;;;;;;10.57;2.83;;;12.50;66.80;;;;;;5112155;28;20024;-73
2022/05/28 01:24:27;;;;;;;13.57;3.05;;;12.40;67.20;;;;;;5093805;28;20031;-73
2022/05/28 01:27:16;;;;;;;9.80;2.80;;;12.40;67.30;;;;;;5093661;28;20048;-74
2022/05/28 01:29:47;;;;;;;9.57;3.05;;;12.30;67.40;;;;;;5093344;28;20077;-73
2022/05/28 01:32:15;;;;;;;13.30;3.20;;;12.30;67.50;;;;;;5111241;28;20020;-75
2022/05/28 01:34:42;;;;;;;8.43;2.83;;;12.20;67.60;;;;;;5111813;28;20051;-74
2022/05/28 01:37:11;;;;;;;12.35;3.85;;;12.10;67.70;;;;;;5093804;28;20057;-74
2022/05/28 01:39:39;;;;;;;13.52;4.85;;;12.10;67.90;;;;;;5093241;28;20023;-76
2022/05/28 01:42:07;;;;;;;8.95;5.10;;;12.00;67.90;;;;;;5111643;28;20027;-72
2022/05/28 01:44:35;;;;;;;11.55;4.90;;;11.90;68.20;;;;;;5111584;28;20470;-75
2022/05/28 01:47:01;;;;;;;9.95;6.00;;;11.80;68.30;;;;;;5111815;28;20118;-74
2022/05/28 01:49:28;;;;;;;11.23;4.97;;;11.70;68.40;;;;;;5111774;28;20106;-74
2022/05/28 01:51:57;;;;;;;8.13;4.93;;;11.70;68.70;;;;;;5093160;28;20033;-74
2022/05/28 01:54:28;;;;;;;8.20;5.45;;;11.60;68.80;;;;;;5093278;28;20019;-73
2022/05/28 01:56:55;;;;;;;13.50;4.63;;;11.60;68.80;;;;;;5111472;28;20073;-73
2022/05/28 01:59:25;;;;;;;13.43;5.32;;;11.50;68.80;;;;;;5111181;28;20742;-74
2022/05/28 02:01:52;;;;;;;7.53;5.90;;;11.40;68.90;;;;;;5111098;28;20035;-73
2022/05/28 02:04:17;;;;;;;7.50;4.32;;;11.40;69.00;;;;;;5111493;28;20400;-73
2022/05/28 02:06:43;;;;;;;12.10;4.35;;;11.30;69.10;;;;;;5093274;28;20027;-74
2022/05/28 02:09:16;;;;;;;10.85;6.03;;;11.30;69.40;;;;;;5111480;28;20036;-75
2022/05/28 02:11:49;;;;;;;9.73;5.43;;;11.30;69.60;;;;;;5111433;28;20065;-73
2022/05/28 02:14:56;;;;;;;9.70;4.63;;;11.40;69.60;;;;;;5093176;28;20034;-73
2022/05/28 02:17:30;;;;;;;9.93;3.40;;;11.60;69.70;;;;;;5111316;28;20027;-74
2022/05/28 02:20:14;;;;;;;12.73;4.75;;;11.70;69.40;;;;;;5093154;28;20435;-73
2022/05/28 02:22:55;;;;;;;6.00;3.08;;;11.90;69.40;;;;;;5093121;28;20449;-74
2022/05/28 02:25:38;;;;;;;10.25;4.28;;;12.00;69.30;;;;;;5111307;28;20077;-74
2022/05/28 02:28:07;;;;;;;8.93;4.70;;;12.00;69.40;;;;;;5111067;28;20024;-75
2022/05/28 02:30:33;;;;;;;8.57;3.90;;;12.10;69.20;;;;;;5076513;28;20106;-74
2022/05/28 02:33:01;;;;;;;6.38;3.20;;;12.00;69.20;;;;;;5093070;28;20062;-74
2022/05/28 02:35:27;;;;;;;11.27;3.05;;;12.00;69.30;;;;;;5111216;28;20122;-75
2022/05/28 02:37:53;;;;;;;10.20;3.90;;;11.90;69.40;;;;;;5093035;28;20020;-74
2022/05/28 02:40:18;;;;;;;10.25;3.60;;;11.90;69.50;;;;;;5111219;28;20035;-73
2022/05/28 02:42:44;;;;;;;11.50;3.47;;;11.90;69.40;;;;;;5093040;28;20027;-75
2022/05/28 02:45:10;;;;;;;9.60;4.68;;;11.80;69.40;;;;;;5113744;28;20039;-75
2022/05/28 02:47:35;;;;;;;10.70;4.40;;;11.70;69.40;;;;;;5115057;28;20036;-72
2022/05/28 02:50:01;;;;;;;9.77;5.28;;;11.70;69.60;;;;;;5096755;28;20047;-73
2022/05/28 02:52:27;;;;;;;11.38;4.90;;;11.50;69.60;;;;;;5114929;28;20027;-75
2022/05/28 02:54:52;;;;;;;9.68;5.28;;;11.50;69.80;;;;;;5096779;28;20077;-74
2022/05/28 02:57:18;;;;;;;9.85;5.63;;;11.40;69.80;;;;;;5114901;28;20052;-75
2022/05/28 02:59:44;;;;;;;13.77;7.18;;;11.30;69.90;;;;;;5114893;28;20362;-75
2022/05/28 03:02:10;;;;;;;7.80;6.45;;;11.20;70.00;;;;;;5079420;28;20044;-73
2022/05/28 03:04:36;;;;;;;6.95;6.05;;;11.10;70.20;;;;;;5114823;28;20435;-72
2022/05/28 03:07:01;;;;;;;10.57;6.28;;;11.10;70.40;;;;;;5079656;28;20064;-73
2022/05/28 03:09:27;;;;;;;7.45;4.25;;;11.00;70.50;;;;;;5096555;28;20067;-73
2022/05/28 03:11:53;;;;;;;9.32;5.22;;;10.90;70.70;;;;;;5114475;28;20020;-75
2022/05/28 03:14:19;;;;;;;10.52;8.35;;;10.90;70.70;;;;;;5096326;28;20036;-73
2022/05/28 03:16:45;;;;;;;11.18;6.57;;;10.90;70.70;;;;;;5114609;28;20023;-74
2022/05/28 03:19:11;;;;;;;9.43;6.80;;;10.90;70.80;;;;;;5079366;28;20416;-71
2022/05/28 03:21:36;;;;;;;11.07;8.27;;;10.80;70.80;;;;;;5096748;28;20016;-75
2022/05/28 03:24:02;;;;;;;6.97;5.72;;;10.80;70.90;;;;;;5096188;28;20063;-72
2022/05/28 03:26:29;;;;;;;8.60;7.32;;;10.60;71.00;;;;;;5096075;28;20523;-74
2022/05/28 03:28:58;;;;;;;9.10;6.65;;;10.60;71.20;;;;;;5096070;28;20385;-73
2022/05/28 03:31:26;;;;;;;6.82;6.13;;;10.60;71.30;;;;;;5114211;28;20019;-74
2022/05/28 03:33:52;;;;;;;7.60;6.50;;;10.60;71.50;;;;;;5114209;28;20307;-73
2022/05/28 03:36:19;;;;;;;5.72;5.13;;;10.60;71.40;;;;;;5078929;28;20028;-75
2022/05/28 03:38:45;;;;;;;12.05;8.00;;;10.60;71.40;;;;;;5114130;28;20031;-74
2022/05/28 03:41:11;;;;;;;8.73;6.70;;;10.50;71.30;;;;;;5114086;28;20032;-73
2022/05/28 03:43:36;;;;;;;11.07;8.52;;;10.50;71.50;;;;;;5114116;28;20046;-74
2022/05/28 03:46:03;;;;;;;7.93;7.22;;;10.50;71.60;;;;;;5114288;28;20473;-75
2022/05/28 03:48:32;;;;;;;6.68;5.60;;;10.40;71.70;;;;;;5113911;28;20234;-74
2022/05/28 03:50:58;;;;;;;8.48;6.45;;;10.40;71.80;;;;;;5113903;28;20030;-73
2022/05/28 03:53:24;;;;;;;8.18;6.93;;;10.40;71.70;;;;;;5095526;28;20048;-72
2022/05/28 03:55:50;;;;;;;10.40;9.50;;;10.40;71.70;;;;;;5094768;28;20031;-74
2022/05/28 03:58:16;;;;;;;8.95;8.10;;;10.40;71.60;;;;;;5095376;28;20031;-72
2022/05/28 04:00:43;;;;;;;10.43;9.60;;;10.40;71.70;;;;;;5095470;28;20023;-73
2022/05/28 04:03:09;;;;;;;13.07;12.25;;;10.30;71.70;;;;;;5113529;28;20082;-75
2022/05/28 04:05:38;;;;;;;12.30;11.20;;;10.30;71.60;;;;;;5113583;28;20032;-74
2022/05/28 04:08:04;;;;;;;15.65;14.50;;;10.20;71.70;;;;;;5113492;28;20019;-73
2022/05/28 04:10:30;;;;;;;16.50;15.30;;;10.10;71.80;;;;;;5113593;28;20028;-75
2022/05/28 04:12:55;;;;;;;18.13;16.73;;;10.00;72.00;;;;;;5113483;28;20114;-74
2022/05/28 04:15:22;;;;;;;13.90;12.65;;;9.80;72.10;;;;;;5078384;28;20036;-73
2022/05/28 04:17:47;;;;;;;;;;;9.70;72.60;;;;;;5113858;28;20390;-73
2022/05/28 04:20:13;;;;;;;9.05;8.05;;;9.60;72.70;;;;;;5113354;28;19912;-73
2022/05/28 04:22:39;;;;;;;15.73;10.00;;;9.70;72.60;;;;;;5095266;28;20032;-74
2022/05/28 04:25:05;;;;;;;17.52;16.35;;;9.60;72.50;;;;;;5078042;28;20035;-75
2022/05/28 04:27:31;;;;;;;;;;;9.60;72.30;;;;;;5113636;28;20028;-74
2022/05/28 04:29:59;;;;;;;18.70;17.33;;;9.40;72.30;;;;;;5094858;28;19911;-73
2022/05/28 04:32:25;;;;;;;17.20;15.90;;;9.30;72.30;;;;;;5094724;28;20393;-74
2022/05/28 04:34:51;;;;;;;17.40;15.80;;;9.20;72.70;;;;;;5094722;28;20030;-75
2022/05/28 04:37:16;;;;;;;15.25;13.85;;;9.20;73.10;;;;;;5112939;28;20032;-72
2022/05/28 04:39:44;;;;;;;10.57;9.68;;;9.20;73.10;;;;;;5112994;28;20024;-73
2022/05/28 04:42:10;;;;;;;16.00;14.80;;;9.40;73.20;;;;;;5094572;28;20126;-75
2022/05/28 04:44:36;;;;;;;15.23;14.18;;;9.50;73.10;;;;;;5112975;28;20111;-74
2022/05/28 04:47:02;;;;;;;16.88;15.75;;;9.60;72.80;;;;;;5112769;28;20035;-73
2022/05/28 04:49:27;;;;;;;;;;;9.70;72.80;;;;;;5095156;28;20035;-74
2022/05/28 04:51:53;;;;;;;13.88;12.80;;;9.70;72.70;;;;;;5112623;28;19915;-75
2022/05/28 04:54:19;;;;;;;15.82;12.27;;;9.70;72.50;;;;;;5112746;28;20018;-74
2022/05/28 04:56:45;;;;;;;14.45;12.98;;;9.70;72.80;;;;;;5094298;28;20028;-74
2022/05/28 04:59:11;;;;;;;15.52;14.15;;;9.80;73.00;;;;;;5112592;28;20469;-73
2022/05/28 05:01:36;;;;;;;15.85;14.50;;;9.90;73.10;;;;;;5094047;28;20024;-75
2022/05/28 05:04:03;;;;;;;15.73;14.25;;;10.00;73.20;;;;;;5112413;28;20318;-75
2022/05/28 05:06:29;;;;;;;16.02;15.02;;;10.10;73.20;;;;;;5093739;28;20385;-74
2022/05/28 05:08:54;;;;;;;20.63;18.85;;;10.20;73.10;;;;;;5112269;28;20103;-73
2022/05/28 05:11:20;;;;;;;15.90;14.80;;;10.30;72.90;;;;;;5094241;28;20081;-73
2022/05/28 05:13:46;;;;;;;15.15;12.93;;;10.30;72.80;;;;;;5077018;28;20451;-74
2022/05/28 05:16:14;;;;;;;13.43;12.30;;;10.30;72.90;;;;;;5094206;28;20036;-73
2022/05/28 05:18:40;;;;;;;17.08;15.40;;;10.30;73.10;;;;;;5112209;28;20023;-74
2022/05/28 05:21:06;;;;;;;14.68;13.38;;;10.30;73.30;;;;;;5112192;28;20028;-74
2022/05/28 05:23:32;;;;;;;15.48;14.13;;;10.40;73.60;;;;;;5076969;28;20122;-75
2022/05/28 05:25:58;;;;;;;17.38;16.38;;;10.40;73.60;;;;;;5076915;28;20378;-73
2022/05/28 05:28:23;;;;;;;19.05;17.52;;;10.50;73.50;;;;;;5111835;28;20210;-73
2022/05/28 05:30:49;;;;;;;20.35;18.33;;;10.60;73.30;;;;;;5111919;28;20027;-74
2022/05/28 05:33:15;;;;;;;20.48;18.98;;;10.70;73.30;;;;;;5111892;28;20050;-73
2022/05/28 05:35:40;;;;;;;15.32;13.32;;;10.70;73.40;;;;;;5093423;28;20471;-73
2022/05/28 05:38:08;;;;;;;17.30;11.45;;;10.80;73.60;;;;;;5111697;28;20028;-74
2022/05/28 05:40:37;;;;;;;12.73;11.55;;;10.90;73.60;;;;;;5111917;28;20031;-73
2022/05/28 05:43:04;;;;;;;12.85;10.45;;;11.00;73.60;;;;;;5111803;28;20031;-75
2022/05/28 05:45:30;;;;;;;12.00;10.82;;;11.10;73.50;;;;;;5111726;28;20112;-73
2022/05/28 05:47:55;;;;;;;13.27;10.80;;;11.30;73.50;;;;;;5093477;28;20480;-75
2022/05/28 05:50:21;;;;;;;11.95;11.02;;;11.40;73.20;;;;;;5076492;28;20084;-74
2022/05/28 05:52:48;;;;;;;11.50;9.13;;;11.50;73.10;;;;;;5111539;28;20024;-75
2022/05/28 05:55:14;;;;;;;10.85;5.57;;;11.90;73.70;;;;;;5111448;28;20035;-75
2022/05/28 05:57:39;;;;;;;9.05;3.53;;;12.90;73.50;;;;;;5111442;28;20506;-73
2022/05/28 06:00:06;;;;;;;6.18;3.13;;;14.40;72.20;;;;;;5093936;28;20112;-75
2022/05/28 06:02:32;;;;;;;10.20;4.13;;;15.90;70.10;;;;;;5093714;28;20174;-72
2022/05/28 06:04:58;;;;;;;10.23;3.22;;;17.20;68.00;;;;;;5093446;28;20548;-74
2022/05/28 06:07:24;;;;;;;9.48;2.40;;;18.10;66.70;;;;;;5076616;28;20035;-73
2022/05/28 06:09:50;;;;;;;11.10;2.53;;;19.10;65.80;;;;;;5093250;28;20062;-74
2022/05/28 06:12:16;;;;;;;5.93;1.83;;;19.60;64.50;;;;;;5093136;28;20485;-75
2022/05/28 06:14:41;;;;;;;10.70;2.65;;;20.10;64.20;;;;;;5111479;28;20135;-73
2022/05/28 06:17:07;;;;;;;9.77;2.67;;;20.90;63.10;;;;;;5111199;28;20431;-75
2022/05/28 06:19:33;;;;;;;;;;;21.60;61.70;;;;;;5096939;28;20114;-75
2022/05/28 06:22:00;;;;;;;11.35;2.33;;;22.20;61.30;;;;;;5115566;28;20334;-74
2022/05/28 06:24:26;;;;;;;9.43;2.35;;;22.80;60.60;;;;;;5115599;28;20393;-75
2022/05/28 06:26:53;;;;;;;8.77;1.80;;;23.30;60.00;;;;;;5115353;28;20058;-74
2022/05/28 06:29:18;;;;;;;5.65;1.40;;;23.70;59.90;;;;;;5096907;28;20031;-73
2022/05/28 06:31:44;;;;;;;;;;;23.70;59.70;;;;;;5115446;28;20131;-76
2022/05/28 06:34:10;;;;;;;9.35;1.77;;;23.90;60.30;;;;;;5097104;28;20014;-75
2022/05/28 06:36:35;;;;;;;;;;;24.30;60.30;;;;;;5115742;28;20020;-73
2022/05/28 06:39:01;;;;;;;7.32;1.88;;;24.80;59.90;;;;;;5096630;28;20357;-74
2022/05/28 06:41:26;;;;;;;;;;;25.30;59.00;;;;;;5097201;28;20076;-74
2022/05/28 06:43:52;;;;;;;10.85;2.42;;;25.60;58.50;;;;;;5115203;28;20350;-76
2022/05/28 06:46:18;;;;;;;;;;;25.40;58.20;;;;;;5097425;28;20026;-77
2022/05/28 06:48:43;;;;;;;8.90;2.17;;;25.10;58.60;;;;;;5114882;28;19911;-74
2022/05/28 06:51:09;;;;;;;;;;;25.10;59.00;;;;;;5115370;28;20032;-77
2022/05/28 06:53:38;;;;;;;8.55;2.78;;;25.10;59.10;;;;;;5096700;28;20187;-75
2022/05/28 06:56:05;;;;;;;8.80;2.13;;;25.30;58.60;;;;;;5096355;28;20473;-71
2022/05/28 06:58:31;;;;;;;12.10;2.40;;;25.90;57.60;;;;;;5114638;28;20016;-75
2022/05/28 07:00:57;;;;;;;15.18;3.00;;;26.30;56.00;;;;;;5114601;28;20032;-73
2022/05/28 07:03:26;;;;;;;11.45;2.20;;;26.60;54.90;;;;;;5114429;28;20051;-72
2022/05/28 07:05:52;;;;;;;11.63;2.28;;;27.00;53.80;;;;;;5096604;28;20394;-74
2022/05/28 07:08:18;;;;;;;12.07;2.50;;;27.30;52.90;;;;;;5114851;28;20378;-75
2022/05/28 07:10:47;;;;;;;7.22;2.40;;;27.20;52.00;;;;;;5114638;28;20034;-72
2022/05/28 07:13:14;;;;;;;8.65;2.40;;;27.10;51.60;;;;;;5114459;28;20019;-73
2022/05/28 07:15:40;;;;;;;9.77;2.65;;;26.80;50.70;;;;;;5114429;28;20024;-73
2022/05/28 07:18:06;;;;;;;10.73;2.25;;;25.80;50.60;;;;;;5096453;28;20509;-73
2022/05/28 07:20:32;;;;;;;12.15;2.60;;;24.90;51.00;;;;;;5096010;28;20035;-74
2022/05/28 07:22:57;;;;;;;;;;;24.60;51.70;;;;;;5114712;28;20024;-74
2022/05/28 07:25:23;;;;;;;12.13;2.33;;;25.10;52.70;;;;;;5096016;28;19908;-72
2022/05/28 07:27:49;;;;;;;7.95;1.80;;;26.00;52.40;;;;;;5113839;28;20031;-73
2022/05/28 07:30:14;;;;;;;7.45;1.73;;;26.70;51.60;;;;;;5094682;28;20054;-73
2022/05/28 07:32:40;;;;;;;10.13;2.20;;;26.70;50.30;;;;;;5113818;28;20081;-72
2022/05/28 07:35:07;;;;;;;7.43;2.05;;;26.10;49.70;;;;;;5114123;28;20034;-75
2022/05/28 07:37:33;;;;;;;6.43;1.73;;;25.30;49.60;;;;;;5078671;28;20047;-74
2022/05/28 07:39:58;;;;;;;;;;;24.80;50.10;;;;;;5114176;28;20059;-75
2022/05/28 07:42:26;;;;;;;8.52;2.28;;;24.60;51.20;;;;;;5113740;28;20006;-75
2022/05/28 07:44:51;;;;;;;10.38;2.17;;;25.00;51.60;;;;;;5113351;28;20035;-75
2022/05/28 07:47:18;;;;;;;6.43;1.95;;;26.00;51.00;;;;;;5113876;28;20035;-74
2022/05/28 07:49:45;;;;;;;9.13;1.70;;;26.60;50.40;;;;;;5113606;28;20028;-74
2022/05/28 07:52:10;;;;;;;7.57;2.28;;;27.10;49.50;;;;;;5113535;28;20027;-75
2022/05/28 07:54:37;;;;;;;8.70;1.80;;;26.90;49.00;;;;;;5095171;28;20016;-73
2022/05/28 07:57:03;;;;;;;7.05;1.85;;;26.40;49.00;;;;;;5113354;28;20020;-74
2022/05/28 07:59:29;;;;;;;9.75;1.95;;;26.20;49.50;;;;;;5112414;28;20035;-75
2022/05/28 08:01:56;;;;;;;7.47;2.05;;;26.50;50.00;;;;;;5090317;28;20031;-72
2022/05/28 08:04:21;;;;;;;5.70;1.70;;;27.30;49.30;;;;;;5109345;28;20582;-74
2022/05/28 08:06:47;;;;;;;6.60;1.90;;;28.10;48.80;;;;;;5109201;28;20024;-75
2022/05/28 08:09:13;;;;;;;14.23;1.90;;;28.80;48.30;;;;;;5073788;28;20572;-73
2022/05/28 08:11:39;;;;;;;6.43;1.25;;;29.20;48.20;;;;;;5073809;28;20123;-73
2022/05/28 08:14:05;;;;;;;5.75;1.58;;;29.90;47.80;;;;;;5109279;28;20024;-73
2022/05/28 08:16:31;;;;;;;8.75;1.42;;;30.20;46.90;;;;;;5090702;28;20036;-73
2022/05/28 08:18:57;;;;;;;6.90;1.73;;;30.10;46.40;;;;;;5109317;28;20031;-75
2022/05/28 08:24:07;;;;;;;9.20;1.85;;;30.20;46.10;;;;;;5109526;28;20034;-75
2022/05/28 08:26:35;;;;;;;6.55;1.50;;;30.50;45.80;;;;;;5108343;28;20088;-73
2022/05/28 08:29:01;;;;;;;4.32;1.48;;;30.60;45.40;;;;;;5108959;28;20049;-74
2022/05/28 08:31:27;;;;;;;5.38;1.20;;;31.00;45.20;;;;;;5090873;28;20023;-75
2022/05/28 08:33:54;;;;;;;5.38;1.45;;;31.40;44.80;;;;;;5108477;28;20039;-76
2022/05/28 08:36:20;;;;;;;5.05;1.33;;;30.60;43.80;;;;;;5090071;28;20425;-73
2022/05/28 08:38:46;;;;;;;4.95;1.55;;;29.90;44.80;;;;;;5108626;28;20034;-73
2022/05/28 08:41:30;;;;;;;9.73;1.65;;;30.30;45.00;;;;;;5107852;28;20030;-75
2022/05/28 08:44:17;;;;;;;8.63;1.77;;;30.80;44.40;;;;;;5090434;28;20396;-76
2022/05/28 08:46:47;;;;;;;6.38;1.13;;;31.00;43.80;;;;;;5107926;28;20458;-73
2022/05/28 08:49:14;;;;;;;8.45;1.67;;;31.30;44.00;;;;;;5107706;28;20020;-75
2022/05/28 08:51:56;;;;;;;7.35;1.40;;;31.60;43.60;;;;;;5108043;28;20034;-75
2022/05/28 08:54:21;;;;;;;4.15;1.10;;;31.60;43.00;;;;;;5108135;28;20032;-74
2022/05/28 08:56:49;;;;;;;5.20;1.15;;;31.70;43.00;;;;;;5108152;28;20037;-74
2022/05/28 08:59:30;;;;;;;6.75;1.30;;;31.80;43.10;;;;;;5089392;28;20292;-74
2022/05/28 09:01:57;;;;;;;5.03;1.13;;;32.30;42.90;;;;;;5107757;28;20072;-76
2022/05/28 09:04:30;;;;;;;5.22;1.50;;;32.50;42.90;;;;;;5108520;28;20035;-76
2022/05/28 09:07:02;;;;;;;5.65;1.50;;;32.60;42.10;;;;;;5107772;28;20378;-75
2022/05/28 09:09:49;;;;;;;4.55;1.20;;;32.40;41.50;;;;;;5107991;28;20063;-75
2022/05/28 09:12:21;;;;;;;6.63;1.52;;;32.10;41.60;;;;;;5107880;28;20028;-75
2022/05/28 09:14:47;;;;;;;8.57;1.60;;;32.20;42.20;;;;;;5107971;28;20103;-74
2022/05/28 09:17:34;;;;;;;9.13;1.90;;;32.50;42.10;;;;;;5107297;28;20094;-73
2022/05/28 09:20:25;;;;;;;9.73;1.85;;;32.70;41.90;;;;;;5089614;28;20088;-75
2022/05/28 09:22:52;;;;;;;4.90;1.25;;;33.00;41.90;;;;;;5107966;28;20072;-73
2022/05/28 09:25:22;;;;;;;7.22;1.40;;;33.10;42.00;;;;;;5107848;28;20067;-72
2022/05/28 09:28:08;;;;;;;9.15;1.92;;;33.30;41.40;;;;;;5107859;28;20107;-72
2022/05/28 09:30:55;;;;;;;8.15;1.52;;;33.40;41.20;;;;;;5107962;28;20487;-73
2022/05/28 09:33:30;;;;;;;5.70;1.40;;;33.40;41.00;;;;;;5105612;28;20023;-72
2022/05/28 09:36:09;;;;;;;7.27;1.80;;;33.40;41.40;;;;;;5107860;28;20508;-72
2022/05/28 09:39:02;;;;;;;6.88;1.60;;;33.40;40.70;;;;;;5107437;28;20505;-74
2022/05/28 09:41:53;;;;;;;6.47;1.45;;;33.10;40.30;;;;;;5106701;28;20092;-72
2022/05/28 09:44:39;;;;;;;7.20;1.80;;;33.20;40.70;;;;;;5104907;28;20016;-71
2022/05/28 09:47:14;;;;;;;5.45;1.45;;;33.60;40.50;;;;;;5086775;28;20016;-73
2022/05/28 09:49:49;;;;;;;8.93;1.67;;;34.20;40.00;;;;;;5107090;28;20074;-72
2022/05/28 09:52:22;;;;;;;6.75;1.48;;;33.90;39.50;;;;;;5107510;28;20527;-73
2022/05/28 09:54:48;;;;;;;5.93;1.75;;;33.50;40.00;;;;;;5105035;28;20489;-73
2022/05/28 09:57:24;;;;;;;7.57;1.73;;;33.10;40.10;;;;;;5089129;28;20095;-70
2022/05/28 09:59:55;;;;;;;;;;;33.00;40.50;;;;;;5106090;28;20032;-73
2022/05/28 10:02:32;;;;;;;8.77;1.75;;;33.10;41.50;;;;;;5088300;28;20369;-71
2022/05/28 10:05:13;;;;;;;12.88;2.33;;;33.80;41.20;;;;;;5107174;28;20051;-72
2022/05/28 10:07:42;;;;;;;4.07;1.30;;;34.40;40.70;;;;;;5106315;28;20019;-71
2022/05/28 10:10:19;;;;;;;6.22;1.38;;;33.80;40.20;;;;;;5104265;28;20051;-72
2022/05/28 10:12:45;;;;;;;5.88;1.40;;;32.70;39.90;;;;;;5106517;28;20073;-71
2022/05/28 10:15:14;;;;;;;8.35;1.50;;;31.60;40.70;;;;;;5107108;28;20061;-72
2022/05/28 10:17:43;;;;;;;6.45;1.58;;;31.20;41.10;;;;;;5107053;28;20050;-72
2022/05/28 10:20:18;;;;;;;9.27;1.40;;;31.50;41.30;;;;;;5088856;28;20333;-72
2022/05/28 10:22:46;;;;;;;5.38;1.63;;;31.80;41.00;;;;;;5106691;28;20032;-72
2022/05/28 10:25:26;;;;;;;5.40;1.17;;;32.20;41.10;;;;;;5106798;28;20027;-73
2022/05/28 10:27:53;;;;;;;7.53;1.33;;;32.80;40.70;;;;;;5106914;28;20027;-72
2022/05/28 10:30:41;;;;;;;7.15;1.65;;;32.80;40.10;;;;;;5105769;28;20019;-73
2022/05/28 10:33:17;;;;;;;5.10;1.25;;;32.80;40.10;;;;;;5107267;28;20015;-73
2022/05/28 10:35:43;;;;;;;5.75;1.27;;;32.60;39.70;;;;;;5107598;28;20096;-74
2022/05/28 10:38:19;;;;;;;4.60;1.33;;;32.40;39.40;;;;;;5107027;28;20035;-71
2022/05/28 10:40:56;;;;;;;5.05;1.20;;;32.00;39.80;;;;;;5107401;28;20023;-73
2022/05/28 10:43:46;;;;;;;6.80;1.88;;;31.20;39.40;;;;;;5088252;28;20465;-72
2022/05/28 10:46:13;;;;;;;4.60;1.20;;;30.50;40.40;;;;;;5106709;28;20039;-72
2022/05/28 10:48:47;;;;;;;8.73;1.58;;;30.40;41.00;;;;;;5088259;28;20114;-72
2022/05/28 10:51:42;;;;;;;3.13;1.00;;;30.20;40.80;;;;;;5107362;28;20023;-71
2022/05/28 10:54:25;;;;;;;4.65;1.67;;;29.50;40.80;;;;;;5106632;28;20024;-70
2022/05/28 10:57:13;;;;;;;4.10;1.20;;;29.70;41.70;;;;;;5106620;28;20060;-70
2022/05/28 11:00:03;;;;;;;6.97;1.60;;;30.50;41.20;;;;;;5106352;28;20019;-71
2022/05/28 11:03:01;;;;;;;8.40;1.35;;;31.00;40.90;;;;;;5105796;28;20071;-72
2022/05/28 11:05:51;;;;;;;8.73;1.35;;;31.20;40.80;;;;;;5088935;28;20035;-73
2022/05/28 11:08:46;;;;;;;4.88;1.10;;;31.40;41.00;;;;;;5109251;28;20052;-69
2022/05/28 11:11:22;;;;;;;6.50;1.70;;;31.90;40.80;;;;;;5091536;28;20027;-74
2022/05/28 11:14:20;;;;;;;6.95;1.48;;;32.10;40.70;;;;;;5091477;28;20027;-73
2022/05/28 11:17:05;;;;;;;3.97;1.50;;;31.90;40.40;;;;;;5107458;28;20034;-74
2022/05/28 11:19:33;;;;;;;10.50;1.40;;;31.60;40.90;;;;;;5109953;28;20554;-75
2022/05/28 11:22:05;;;;;;;5.43;0.82;;;31.50;41.00;;;;;;5109951;28;20032;-73
2022/05/28 11:24:53;;;;;;;4.07;1.15;;;31.70;40.60;;;;;;5109400;28;20092;-74
2022/05/28 11:27:38;;;;;;;3.50;1.10;;;32.20;40.20;;;;;;5109616;28;20027;-73
2022/05/28 11:30:16;;;;;;;5.80;1.10;;;32.50;40.30;;;;;;5091226;28;20035;-71
2022/05/28 11:32:48;;;;;;;6.72;1.25;;;33.20;39.90;;;;;;5109638;28;20038;-72
2022/05/28 11:35:14;;;;;;;5.18;1.20;;;33.30;39.80;;;;;;5109677;28;20115;-74
2022/05/28 11:38:08;;;;;;;5.13;1.25;;;33.30;39.80;;;;;;5109778;28;20412;-74
2022/05/28 11:41:07;;;;;;;4.15;1.42;;;33.70;39.80;;;;;;5109501;28;20051;-74
2022/05/28 11:43:57;;;;;;;3.33;1.48;;;33.60;39.40;;;;;;5109150;28;20038;-74
2022/05/28 11:46:35;;;;;;;3.08;1.00;;;33.50;39.80;;;;;;5109326;28;20422;-73
2022/05/28 11:52:21;;;;;;;4.93;0.98;;;34.60;39.10;;;;;;5110319;28;20077;-74
2022/05/28 11:55:14;;;;;;;6.72;1.15;;;34.10;39.00;;;;;;5109696;28;20042;-76
2022/05/28 11:58:24;;;;;;;4.75;1.20;;;32.90;39.20;;;;;;5101422;28;20625;-74
2022/05/28 12:01:00;;;;;;;5.85;1.10;;;32.20;39.70;;;;;;5084903;28;20315;-73
2022/05/28 12:03:30;;;;;;;6.13;1.20;;;31.80;39.50;;;;;;5108772;28;20154;-75
2022/05/28 12:06:08;;;;;;;5.65;1.20;;;31.30;39.80;;;;;;5109203;28;20019;-74
2022/05/28 12:08:58;;;;;;;3.22;1.15;;;31.30;39.90;;;;;;5089987;28;20524;-73
2022/05/28 12:11:30;;;;;;;4.25;1.20;;;31.60;40.30;;;;;;5090317;28;20110;-73
2022/05/28 12:13:58;;;;;;;3.55;1.00;;;32.20;40.00;;;;;;5108681;28;20035;-75
2022/05/28 12:16:40;;;;;;;3.75;1.00;;;32.60;39.60;;;;;;5107965;28;20024;-74
2022/05/28 12:19:26;;;;;;;3.38;0.90;;;32.70;39.60;;;;;;5089926;28;20074;-73
2022/05/28 12:21:52;;;;;;;3.40;1.10;;;32.20;39.60;;;;;;5106716;28;20042;-72
2022/05/28 12:24:18;;;;;;;2.78;1.10;;;32.20;40.00;;;;;;5089676;28;20123;-74
2022/05/28 12:26:50;;;;;;;4.90;1.10;;;31.90;39.80;;;;;;5107961;28;20020;-72
2022/05/28 12:29:34;;;;;;;4.00;0.90;;;31.30;39.90;;;;;;5109117;28;20031;-74
2022/05/28 12:32:22;;;;;;;4.72;1.15;;;30.70;40.00;;;;;;5090617;28;20533;-74
2022/05/28 12:35:02;;;;;;;6.13;1.27;;;30.30;40.20;;;;;;5108889;28;20065;-73
2022/05/28 12:37:36;;;;;;;2.97;1.20;;;30.20;40.60;;;;;;5108227;28;20023;-70
2022/05/28 12:40:21;;;;;;;4.78;1.42;;;30.20;40.80;;;;;;5089982;28;20658;-73
2022/05/28 12:42:47;;;;;;;4.07;0.90;;;30.10;40.70;;;;;;5108465;28;20035;-75
2022/05/28 12:45:42;;;;;;;3.03;0.75;;;29.90;40.90;;;;;;5090715;28;20019;-73
2022/05/28 12:48:15;;;;;;;5.45;1.33;;;29.90;40.80;;;;;;5108631;28;20024;-73
2022/05/28 12:51:00;;;;;;;5.45;1.33;;;30.10;40.80;;;;;;5090184;28;20026;-73
2022/05/28 12:53:28;;;;;;;3.80;0.82;;;30.10;40.70;;;;;;5090199;28;20493;-73
2022/05/28 12:56:06;;;;;;;2.58;0.95;;;30.00;40.80;;;;;;5108703;28;20040;-73
2022/05/28 12:58:34;;;;;;;5.28;1.35;;;30.20;40.90;;;;;;5090054;28;20029;-75
2022/05/28 13:01:05;;;;;;;7.28;1.00;;;30.30;40.90;;;;;;5107870;28;20407;-74
2022/05/28 13:03:35;;;;;;;4.18;1.10;;;30.40;41.00;;;;;;5107730;28;20072;-74
2022/05/28 13:06:42;;;;;;;4.53;1.42;;;30.40;41.00;;;;;;5107622;28;20024;-74
2022/05/28 13:09:11;;;;;;;4.28;1.10;;;30.20;40.90;;;;;;5093697;28;20477;-74
2022/05/28 13:11:46;;;;;;;14.32;5.78;;;29.60;41.20;;;;;;5108036;28;20026;-74